createdAt,value
2022-10-10T00:01:37.429Z,5.30
2022-10-10T00:04:06.580Z,4.50
2022-10-10T00:06:34.838Z,5.17
2022-10-10T00:09:06.118Z,5.90
2022-10-10T00:11:35.649Z,6.80
2022-10-10T00:14:03.540Z,6.60
2022-10-10T00:16:31.345Z,6.23
2022-10-10T00:18:58.919Z,5.93
2022-10-10T00:21:26.556Z,6.87
2022-10-10T00:23:54.285Z,5.40
2022-10-10T00:26:22.846Z,6.67
2022-10-10T00:28:50.470Z,6.23
2022-10-10T00:31:18.502Z,6.00
2022-10-10T00:33:46.506Z,5.93
2022-10-10T00:36:15.685Z,6.10
2022-10-10T00:38:43.608Z,5.73
2022-10-10T00:41:11.300Z,6.00
2022-10-10T00:43:39.385Z,5.80
2022-10-10T00:46:07.236Z,6.67
2022-10-10T00:48:45.434Z,5.30
2022-10-10T00:51:19.854Z,5.47
2022-10-10T00:54:03.005Z,6.10
2022-10-10T00:56:48.451Z,5.80
2022-10-10T00:59:18.807Z,7.93
2022-10-10T01:01:47.438Z,5.73
2022-10-10T01:04:45.862Z,6.30
2022-10-10T01:07:26.922Z,5.97
2022-10-10T01:10:05.414Z,5.63
2022-10-10T01:13:00.634Z,6.30
2022-10-10T01:16:18.304Z,6.40
2022-10-10T01:19:20.458Z,6.37
2022-10-10T01:22:40.820Z,6.27
2022-10-10T01:26:00.902Z,5.93
2022-10-10T01:28:59.789Z,5.73
2022-10-10T01:31:31.123Z,6.10
2022-10-10T01:34:50.243Z,6.70
2022-10-10T01:38:03.255Z,6.73
2022-10-10T01:40:57.511Z,5.97
2022-10-10T01:43:26.713Z,5.90
2022-10-10T01:45:55.301Z,6.20
2022-10-10T01:48:32.599Z,6.33
2022-10-10T01:51:48.948Z,5.87
2022-10-10T01:55:29.653Z,6.10
2022-10-10T01:59:03.685Z,6.23
2022-10-10T02:02:16.228Z,5.97
2022-10-10T02:05:56.874Z,6.00
2022-10-10T02:08:48.100Z,6.17
2022-10-10T02:11:15.827Z,5.80
2022-10-10T02:14:02.921Z,7.00
2022-10-10T02:16:42.414Z,6.03
2022-10-10T02:19:18.915Z,6.10
2022-10-10T02:21:51.947Z,6.10
2022-10-10T02:24:24.898Z,6.30
2022-10-10T02:27:17.579Z,5.60
2022-10-10T02:29:49.164Z,6.43
2022-10-10T02:32:40.950Z,6.70
2022-10-10T02:35:24.914Z,5.50
2022-10-10T02:37:54.914Z,5.63
2022-10-10T02:40:31.195Z,5.37
2022-10-10T02:43:06.629Z,5.60
2022-10-10T02:45:35.719Z,5.50
2022-10-10T02:48:05.099Z,5.87
2022-10-10T02:50:34.553Z,6.00
2022-10-10T02:53:02.282Z,5.13
2022-10-10T02:55:30.050Z,6.17
2022-10-10T02:57:58.109Z,5.90
2022-10-10T03:00:25.698Z,5.90
2022-10-10T03:02:53.697Z,5.60
2022-10-10T03:05:21.527Z,5.77
2022-10-10T03:07:49.963Z,6.97
2022-10-10T03:10:17.661Z,7.10
2022-10-10T03:12:45.308Z,6.43
2022-10-10T03:15:12.901Z,5.10
2022-10-10T03:17:40.932Z,5.40
2022-10-10T03:20:11.619Z,5.97
2022-10-10T03:22:39.358Z,5.20
2022-10-10T03:25:07.874Z,7.07
2022-10-10T03:27:35.882Z,5.50
2022-10-10T03:30:06.142Z,5.90
2022-10-10T03:32:33.846Z,6.33
2022-10-10T03:35:02.060Z,5.40
2022-10-10T03:37:29.585Z,4.70
2022-10-10T03:39:57.243Z,5.80
2022-10-10T03:42:25.009Z,5.87
2022-10-10T03:44:52.638Z,5.90
2022-10-10T03:47:20.448Z,6.20
2022-10-10T03:49:47.957Z,6.40
2022-10-10T03:52:16.305Z,6.00
2022-10-10T03:54:43.951Z,5.73
2022-10-10T03:57:11.743Z,5.30
2022-10-10T03:59:39.364Z,6.20
2022-10-10T04:02:07.494Z,6.80
2022-10-10T04:04:35.302Z,6.53
2022-10-10T04:07:02.952Z,6.30
2022-10-10T04:09:30.615Z,6.00
2022-10-10T04:11:59.346Z,5.60
2022-10-10T04:14:26.928Z,5.40
2022-10-10T04:16:54.745Z,6.70
2022-10-10T04:19:22.666Z,5.90
2022-10-10T04:21:51.054Z,6.43
2022-10-10T04:24:18.660Z,6.97
2022-10-10T04:26:46.221Z,6.70
2022-10-10T04:29:13.832Z,6.20
2022-10-10T04:31:41.414Z,5.17
2022-10-10T04:34:09.088Z,6.53
2022-10-10T04:36:36.980Z,6.97
2022-10-10T04:39:05.117Z,6.10
2022-10-10T04:41:33.092Z,5.73
2022-10-10T04:44:00.860Z,6.57
2022-10-10T04:46:28.505Z,6.23
2022-10-10T04:48:56.242Z,5.90
2022-10-10T04:51:24.016Z,5.90
2022-10-10T04:53:51.538Z,6.40
2022-10-10T04:56:19.434Z,7.03
2022-10-10T04:58:47.047Z,5.83
2022-10-10T05:01:15.331Z,6.00
2022-10-10T05:03:43.433Z,6.17
2022-10-10T05:06:11.221Z,6.20
2022-10-10T05:08:39.066Z,6.97
2022-10-10T05:11:06.735Z,7.40
2022-10-10T05:13:34.436Z,6.20
2022-10-10T05:16:02.107Z,6.33
2022-10-10T05:18:29.819Z,6.60
2022-10-10T05:21:02.566Z,7.37
2022-10-10T05:23:31.147Z,6.97
2022-10-10T05:25:58.809Z,7.10
2022-10-10T05:28:26.718Z,6.33
2022-10-10T05:30:54.295Z,8.07
2022-10-10T05:33:22.501Z,7.17
2022-10-10T05:35:50.235Z,7.40
2022-10-10T05:38:18.183Z,7.33
2022-10-10T05:40:45.782Z,7.30
2022-10-10T05:43:13.456Z,6.90
2022-10-10T05:45:41.139Z,8.20
2022-10-10T05:48:09.375Z,8.03
2022-10-10T05:50:50.942Z,7.87
2022-10-10T05:53:21.838Z,8.93
2022-10-10T05:55:50.340Z,9.77
2022-10-10T05:58:18.190Z,9.10
2022-10-10T06:00:48.264Z,8.30
2022-10-10T06:03:17.339Z,8.90
2022-10-10T06:05:52.244Z,8.43
2022-10-10T06:08:19.986Z,7.70
2022-10-10T06:10:49.063Z,9.07
2022-10-10T06:13:24.042Z,8.47
2022-10-10T06:15:52.788Z,8.00
2022-10-10T06:18:20.631Z,8.37
2022-10-10T06:20:48.506Z,7.90
2022-10-10T06:23:16.500Z,7.20
2022-10-10T06:25:44.253Z,8.50
2022-10-10T06:28:12.608Z,8.23
2022-10-10T06:30:45.303Z,7.73
2022-10-10T06:33:13.550Z,8.07
2022-10-10T06:35:49.029Z,7.80
2022-10-10T06:38:17.871Z,9.00
2022-10-10T06:40:46.643Z,9.10
2022-10-10T06:43:17.473Z,8.57
2022-10-10T06:45:50.533Z,8.73
2022-10-10T06:48:18.089Z,8.23
2022-10-10T06:51:02.992Z,8.00
2022-10-10T06:53:32.957Z,6.97
2022-10-10T06:56:01.826Z,8.00
2022-10-10T06:58:31.251Z,8.30
2022-10-10T07:01:04.918Z,6.80
2022-10-10T07:03:33.062Z,7.33
2022-10-10T07:06:03.481Z,6.60
2022-10-10T07:08:31.704Z,4.90
2022-10-10T07:10:59.329Z,5.20
2022-10-10T07:13:27.010Z,4.17
2022-10-10T07:15:54.738Z,4.17
2022-10-10T07:18:23.422Z,4.63
2022-10-10T07:20:51.270Z,4.43
2022-10-10T07:23:18.959Z,4.40
2022-10-10T07:25:47.212Z,4.50
2022-10-10T07:28:16.303Z,4.70
2022-10-10T07:30:47.220Z,4.17
2022-10-10T07:33:16.235Z,4.63
2022-10-10T07:35:43.977Z,3.83
2022-10-10T07:38:13.321Z,3.90
2022-10-10T07:40:41.785Z,4.30
2022-10-10T07:43:09.576Z,3.90
2022-10-10T07:45:37.944Z,3.80
2022-10-10T07:48:06.590Z,4.20
2022-10-10T07:50:34.383Z,4.57
2022-10-10T07:53:02.242Z,4.70
2022-10-10T07:55:29.999Z,4.40
2022-10-10T07:57:59.795Z,4.17
2022-10-10T08:00:27.912Z,5.17
2022-10-10T08:02:55.581Z,4.83
2022-10-10T08:05:23.319Z,5.50
2022-10-10T08:07:51.332Z,4.40
2022-10-10T08:10:19.238Z,4.40
2022-10-10T08:12:47.048Z,6.37
2022-10-10T08:15:14.929Z,4.60
2022-10-10T08:17:42.736Z,4.63
2022-10-10T08:20:10.850Z,5.23
2022-10-10T08:22:38.542Z,4.53
2022-10-10T08:25:07.398Z,3.90
2022-10-10T08:27:35.172Z,3.97
2022-10-10T08:30:02.920Z,5.13
2022-10-10T08:32:30.528Z,3.67
2022-10-10T08:34:58.229Z,3.67
2022-10-10T08:37:30.264Z,4.00
2022-10-10T08:40:00.363Z,3.77
2022-10-10T08:42:53.459Z,3.50
2022-10-10T08:45:29.424Z,2.80
2022-10-10T08:48:12.478Z,3.90
2022-10-10T08:51:06.930Z,3.13
2022-10-10T08:53:53.757Z,3.93
2022-10-10T08:56:32.905Z,3.30
2022-10-10T08:59:24.701Z,3.10
2022-10-10T09:02:53.206Z,3.33
2022-10-10T09:06:28.954Z,3.60
2022-10-10T09:09:52.577Z,3.60
2022-10-10T09:13:12.942Z,2.73
2022-10-10T09:17:14.472Z,2.83
2022-10-10T09:20:54.980Z,2.83
2022-10-10T09:23:51.432Z,3.03
2022-10-10T09:26:30.693Z,2.93
2022-10-10T09:29:22.988Z,3.10
2022-10-10T09:32:25.703Z,3.73
2022-10-10T09:35:24.873Z,3.63
2022-10-10T09:38:11.553Z,3.33
2022-10-10T09:41:04.016Z,3.10
2022-10-10T09:43:35.447Z,3.60
2022-10-10T09:46:03.457Z,3.00
2022-10-10T09:48:43.731Z,3.17
2022-10-10T09:51:19.291Z,3.57
2022-10-10T09:53:50.091Z,3.73
2022-10-10T09:56:48.331Z,3.40
2022-10-10T09:59:46.376Z,3.40
2022-10-10T10:02:28.507Z,3.40
2022-10-10T10:04:56.443Z,3.70
2022-10-10T10:07:36.369Z,3.67
2022-10-10T10:10:24.477Z,4.07
2022-10-10T10:12:55.023Z,3.37
2022-10-10T10:15:32.348Z,4.03
2022-10-10T10:18:19.478Z,3.20
2022-10-10T10:20:55.195Z,3.73
2022-10-10T10:24:03.367Z,3.87
2022-10-10T10:26:48.116Z,3.90
2022-10-10T10:29:34.327Z,3.30
2022-10-10T10:32:41.981Z,3.67
2022-10-10T10:35:38.487Z,3.83
2022-10-10T10:39:25.458Z,3.73
2022-10-10T10:42:32.610Z,3.73
2022-10-10T10:45:37.325Z,3.90
2022-10-10T10:48:31.889Z,3.47
2022-10-10T10:51:42.643Z,3.27
2022-10-10T10:54:49.888Z,3.90
2022-10-10T11:02:01.496Z,3.83
2022-10-10T11:05:27.661Z,3.93
2022-10-10T11:08:48.652Z,3.90
2022-10-10T11:11:33.269Z,3.33
2022-10-10T11:15:00.769Z,3.63
2022-10-10T11:17:55.653Z,4.03
2022-10-10T11:21:16.015Z,4.13
2022-10-10T11:24:35.420Z,3.70
2022-10-10T11:27:51.345Z,3.80
2022-10-10T11:30:30.723Z,4.10
2022-10-10T11:33:26.584Z,4.07
2022-10-10T11:36:13.611Z,3.53
2022-10-10T11:39:01.893Z,3.57
2022-10-10T11:42:00.534Z,3.63
2022-10-10T11:44:44.023Z,3.70
2022-10-10T11:47:45.192Z,3.80
2022-10-10T11:50:34.220Z,3.60
2022-10-10T11:53:39.100Z,4.03
2022-10-10T11:56:40.239Z,3.90
2022-10-10T11:59:38.859Z,3.73
2022-10-10T12:02:31.241Z,3.47
2022-10-10T12:05:00.299Z,4.30
2022-10-10T12:08:18.157Z,4.40
2022-10-10T12:10:59.151Z,4.10
2022-10-10T12:13:54.007Z,3.33
2022-10-10T12:16:31.533Z,3.90
2022-10-10T12:19:24.461Z,4.17
2022-10-10T12:22:08.590Z,3.73
2022-10-10T12:25:35.398Z,4.37
2022-10-10T12:28:28.454Z,3.40
2022-10-10T12:30:58.407Z,3.30
2022-10-10T12:33:32.382Z,3.53
2022-10-10T12:36:43.070Z,3.10
2022-10-10T12:39:11.039Z,4.70
2022-10-10T12:41:56.971Z,3.63
2022-10-10T12:44:46.852Z,4.17
2022-10-10T12:47:17.428Z,3.77
2022-10-10T12:50:06.775Z,3.70
2022-10-10T12:53:16.866Z,4.27
2022-10-10T12:55:52.276Z,3.93
2022-10-10T12:58:38.635Z,3.20
2022-10-10T13:01:35.129Z,3.40
2022-10-10T13:04:03.593Z,3.63
2022-10-10T13:06:44.135Z,3.97
2022-10-10T13:09:33.900Z,3.83
2022-10-10T13:12:08.643Z,3.83
2022-10-10T13:14:45.916Z,3.80
2022-10-10T13:17:38.227Z,3.50
2022-10-10T13:20:09.983Z,4.30
2022-10-10T13:22:38.079Z,4.30
2022-10-10T13:25:11.644Z,2.87
2022-10-10T13:27:39.326Z,4.70
2022-10-10T13:30:19.658Z,3.83
2022-10-10T13:32:47.932Z,4.13
2022-10-10T13:35:28.052Z,4.37
2022-10-10T13:38:01.124Z,3.50
2022-10-10T13:40:29.362Z,3.43
2022-10-10T13:42:58.696Z,4.67
2022-10-10T13:45:46.855Z,4.37
2022-10-10T13:48:34.589Z,4.37
2022-10-10T13:51:15.424Z,4.10
2022-10-10T13:53:54.454Z,3.93
2022-10-10T13:56:41.439Z,3.40
2022-10-10T13:59:14.945Z,3.27
2022-10-10T14:01:58.802Z,2.90
2022-10-10T14:04:49.472Z,3.53
2022-10-10T14:07:30.897Z,3.53
2022-10-10T14:10:09.597Z,3.93
2022-10-10T14:12:49.178Z,3.20
2022-10-10T14:15:41.725Z,3.57
2022-10-10T14:18:27.340Z,3.03
2022-10-10T14:20:57.693Z,2.40
2022-10-10T14:23:28.193Z,2.90
2022-10-10T14:25:57.911Z,2.83
2022-10-10T14:28:31.442Z,3.50
2022-10-10T14:31:00.760Z,3.10
2022-10-10T14:33:28.663Z,3.63
2022-10-10T14:35:59.494Z,2.87
2022-10-10T14:38:28.046Z,3.93
2022-10-10T14:40:56.240Z,5.00
2022-10-10T14:43:24.529Z,4.93
2022-10-10T14:45:54.970Z,4.47
2022-10-10T14:48:22.820Z,4.67
2022-10-10T14:50:51.947Z,4.73
2022-10-10T14:53:20.319Z,3.83
2022-10-10T14:55:50.462Z,3.97
2022-10-10T14:58:23.331Z,5.07
2022-10-10T15:00:53.399Z,3.90
2022-10-10T15:03:22.103Z,4.30
2022-10-10T15:05:50.934Z,4.10
2022-10-10T15:08:20.538Z,5.00
2022-10-10T15:10:48.768Z,4.90
2022-10-10T15:13:19.248Z,4.17
2022-10-10T15:15:49.944Z,3.67
2022-10-10T15:18:47.792Z,4.60
2022-10-10T15:21:12.536Z,4.20
2022-10-10T15:23:41.154Z,3.40
2022-10-10T15:26:08.934Z,3.57
2022-10-10T15:28:36.855Z,3.40
2022-10-10T15:31:05.659Z,3.70
2022-10-10T15:33:35.276Z,3.70
2022-10-10T15:36:10.277Z,3.57
2022-10-10T15:38:39.428Z,3.90
2022-10-10T15:41:11.421Z,3.63
2022-10-10T15:44:01.558Z,4.30
2022-10-10T15:46:31.832Z,4.30
2022-10-10T15:49:03.037Z,4.10
2022-10-10T15:51:31.973Z,4.10
2022-10-10T15:54:01.269Z,4.50
2022-10-10T15:56:33.955Z,4.50
2022-10-10T15:59:04.240Z,4.93
2022-10-10T16:01:33.098Z,6.03
2022-10-10T16:04:05.450Z,7.00
2022-10-10T16:06:33.633Z,7.10
2022-10-10T16:09:26.869Z,8.10
2022-10-10T16:11:49.996Z,9.00
2022-10-10T16:14:17.674Z,9.37
2022-10-10T16:16:45.280Z,10.30
2022-10-10T16:19:13.021Z,10.63
2022-10-10T16:21:41.141Z,10.30
2022-10-10T16:24:10.874Z,9.77
2022-10-10T16:26:38.608Z,10.37
2022-10-10T16:29:10.721Z,8.40
2022-10-10T16:31:39.346Z,9.93
2022-10-10T16:34:08.374Z,9.43
2022-10-10T16:36:41.853Z,9.50
2022-10-10T16:39:10.353Z,10.60
2022-10-10T16:41:53.194Z,10.43
2022-10-10T16:44:20.980Z,9.73
2022-10-10T16:46:48.519Z,10.03
2022-10-10T16:49:20.983Z,9.30
2022-10-10T16:51:48.964Z,10.30
2022-10-10T16:54:16.941Z,9.30
2022-10-10T16:56:46.061Z,11.00
2022-10-10T16:59:13.646Z,10.70
2022-10-10T17:01:41.319Z,11.07
2022-10-10T17:04:09.322Z,9.50
2022-10-10T17:06:39.877Z,6.37
2022-10-10T17:09:11.560Z,6.57
2022-10-10T17:11:39.313Z,4.80
2022-10-10T17:14:06.917Z,3.37
2022-10-10T17:19:23.616Z,2.27
2022-10-10T17:21:51.152Z,1.83
2022-10-10T17:24:18.958Z,2.07
2022-10-10T17:26:46.669Z,2.30
2022-10-10T17:29:14.561Z,2.00
2022-10-10T17:31:42.834Z,2.67
2022-10-10T17:34:10.510Z,2.83
2022-10-10T17:36:38.276Z,1.50
2022-10-10T17:39:07.602Z,1.80
2022-10-10T17:41:36.615Z,2.20
2022-10-10T17:44:05.837Z,2.13
2022-10-10T17:46:36.305Z,2.10
2022-10-10T17:49:08.900Z,1.80
2022-10-10T17:51:40.141Z,2.30
2022-10-10T17:54:10.189Z,1.67
2022-10-10T17:56:39.148Z,3.30
2022-10-10T17:59:09.576Z,1.90
2022-10-10T18:01:39.479Z,1.77
2022-10-10T18:04:08.473Z,2.53
2022-10-10T18:06:38.250Z,2.40
2022-10-10T18:09:06.079Z,1.80
2022-10-10T18:11:33.671Z,1.87
2022-10-10T18:14:01.402Z,2.73
2022-10-10T18:16:34.426Z,1.90
2022-10-10T18:19:07.944Z,3.00
2022-10-10T18:21:36.645Z,1.87
2022-10-10T18:24:05.168Z,3.40
2022-10-10T18:26:33.830Z,1.93
2022-10-10T18:29:02.996Z,2.90
2022-10-10T18:31:39.074Z,3.20
2022-10-10T18:34:08.082Z,2.30
2022-10-10T18:36:39.643Z,2.57
2022-10-10T18:39:14.929Z,2.30
2022-10-10T18:41:43.328Z,2.80
2022-10-10T18:44:20.112Z,2.40
2022-10-10T18:46:50.087Z,3.00
2022-10-10T18:49:18.115Z,3.30
2022-10-10T18:51:47.097Z,2.00
2022-10-10T18:54:18.763Z,3.70
2022-10-10T18:56:48.043Z,2.17
2022-10-10T18:59:22.301Z,2.63
2022-10-10T19:01:52.420Z,2.63
2022-10-10T19:04:21.734Z,3.10
2022-10-10T19:06:54.670Z,2.13
2022-10-10T19:09:25.759Z,2.90
2022-10-10T19:11:53.931Z,2.50
2022-10-10T19:14:21.762Z,2.80
2022-10-10T19:16:49.569Z,3.37
2022-10-10T19:19:19.766Z,2.90
2022-10-10T19:21:50.456Z,2.73
2022-10-10T19:24:21.417Z,3.33
2022-10-10T19:26:56.960Z,3.50
2022-10-10T19:29:27.158Z,3.00
2022-10-10T19:31:56.336Z,2.70
2022-10-10T19:34:25.308Z,2.90
2022-10-10T19:36:53.785Z,3.03
2022-10-10T19:39:21.502Z,2.83
2022-10-10T19:41:49.797Z,3.00
2022-10-10T19:44:17.559Z,2.43
2022-10-10T19:46:45.195Z,2.90
2022-10-10T19:49:13.066Z,2.80
2022-10-10T19:51:41.154Z,2.97
2022-10-10T19:54:08.828Z,4.73
2022-10-10T19:56:36.903Z,3.73
2022-10-10T19:59:06.041Z,5.07
2022-10-10T20:01:34.336Z,5.30
2022-10-10T20:04:02.186Z,4.30
2022-10-10T20:06:30.579Z,5.40
2022-10-10T20:08:58.156Z,5.97
2022-10-10T20:11:26.539Z,4.90
2022-10-10T20:13:56.027Z,6.83
2022-10-10T20:16:27.399Z,5.07
2022-10-10T20:18:59.409Z,5.60
2022-10-10T20:21:35.417Z,5.00
2022-10-10T20:24:10.635Z,5.37
2022-10-10T20:26:38.490Z,4.90
2022-10-10T20:29:08.695Z,4.97
2022-10-10T20:31:38.104Z,4.47
2022-10-10T20:34:07.691Z,6.20
2022-10-10T20:36:36.144Z,4.40
2022-10-10T20:39:13.742Z,4.53
2022-10-10T20:41:43.184Z,4.40
2022-10-10T20:44:15.415Z,4.17
2022-10-10T20:46:45.876Z,4.77
2022-10-10T20:49:23.479Z,5.40
2022-10-10T20:51:51.971Z,5.17
2022-10-10T20:54:25.103Z,4.20
2022-10-10T20:56:52.958Z,3.83
2022-10-10T20:59:24.415Z,6.10
2022-10-10T21:01:52.325Z,5.40
2022-10-10T21:04:20.109Z,6.80
2022-10-10T21:06:47.872Z,5.60
2022-10-10T21:09:16.306Z,5.10
2022-10-10T21:11:48.665Z,4.60
2022-10-10T21:14:19.133Z,5.73
2022-10-10T21:16:48.468Z,6.13
2022-10-10T21:19:17.488Z,6.07
2022-10-10T21:21:45.367Z,6.60
2022-10-10T21:24:14.529Z,6.87
2022-10-10T21:26:44.082Z,6.80
2022-10-10T21:29:12.657Z,6.53
2022-10-10T21:31:42.174Z,7.63
2022-10-10T21:34:17.084Z,6.60
2022-10-10T21:36:46.452Z,6.30
2022-10-10T21:39:15.390Z,6.73
2022-10-10T21:41:43.291Z,6.37
2022-10-10T21:44:11.673Z,6.40
2022-10-10T21:46:39.518Z,6.43
2022-10-10T21:49:11.986Z,7.40
2022-10-10T21:51:45.707Z,7.57
2022-10-10T21:54:14.078Z,6.93
2022-10-10T21:56:41.771Z,7.10
2022-10-10T21:59:12.169Z,6.97
2022-10-10T22:01:40.041Z,8.47
2022-10-10T22:04:08.599Z,6.10
2022-10-10T22:06:36.282Z,6.30
2022-10-10T22:09:04.855Z,6.70
2022-10-10T22:11:34.907Z,6.60
2022-10-10T22:14:04.066Z,7.50
2022-10-10T22:16:33.766Z,5.73
2022-10-10T22:19:03.182Z,6.97
2022-10-10T22:21:34.837Z,7.17
2022-10-10T22:24:08.280Z,5.63
2022-10-10T22:26:36.871Z,6.70
2022-10-10T22:29:05.319Z,6.67
2022-10-10T22:31:37.569Z,6.40
2022-10-10T22:34:07.213Z,7.30
2022-10-10T22:36:35.596Z,7.20
2022-10-10T22:39:04.715Z,6.80
2022-10-10T22:41:32.349Z,7.37
2022-10-10T22:43:59.931Z,7.53
2022-10-10T22:46:27.580Z,7.47
2022-10-10T22:48:55.179Z,7.80
2022-10-10T22:51:23.088Z,7.87
2022-10-10T22:53:51.410Z,6.50
2022-10-10T22:56:22.139Z,7.13
2022-10-10T22:58:51.835Z,7.93
2022-10-10T23:01:25.693Z,8.57
2022-10-10T23:04:00.668Z,8.50
2022-10-10T23:06:29.225Z,7.97
2022-10-10T23:08:58.224Z,8.70
2022-10-10T23:11:27.191Z,8.90
2022-10-10T23:13:55.063Z,7.40
2022-10-10T23:16:22.814Z,8.40
2022-10-10T23:18:50.402Z,8.90
2022-10-10T23:21:18.442Z,8.33
2022-10-10T23:23:46.650Z,8.60
2022-10-10T23:26:15.089Z,9.40
2022-10-10T23:28:46.242Z,8.83
2022-10-10T23:31:14.601Z,7.47
2022-10-10T23:33:42.295Z,9.00
2022-10-10T23:36:15.432Z,8.97
2022-10-10T23:38:44.461Z,7.57
2022-10-10T23:41:14.146Z,10.00
2022-10-10T23:43:41.879Z,8.10
2022-10-10T23:46:09.735Z,8.33
2022-10-10T23:48:37.421Z,7.73
2022-10-10T23:51:06.579Z,8.10
2022-10-10T23:53:35.212Z,7.37
2022-10-10T23:56:03.493Z,8.37
2022-10-10T23:58:31.375Z,7.87
